createdAt,value
2022-08-18T00:01:26.511Z,5.73
2022-08-18T00:03:56.032Z,4.77
2022-08-18T00:05:55.393Z,5.77
2022-08-18T00:07:58.260Z,5.40
2022-08-18T00:10:02.007Z,4.37
2022-08-18T00:12:10.388Z,4.70
2022-08-18T00:14:21.483Z,5.47
2022-08-18T00:16:25.000Z,5.83
2022-08-18T00:18:27.965Z,5.10
2022-08-18T00:20:31.106Z,6.17
2022-08-18T00:22:34.429Z,5.37
2022-08-18T00:24:38.439Z,5.43
2022-08-18T00:26:51.618Z,4.70
2022-08-18T00:28:55.823Z,5.40
2022-08-18T00:30:58.626Z,5.30
2022-08-18T00:33:02.213Z,4.97
2022-08-18T00:35:08.031Z,10.77
2022-08-18T00:37:10.924Z,4.87
2022-08-18T00:39:13.905Z,6.87
2022-08-18T00:41:18.090Z,7.20
2022-08-18T00:43:25.808Z,5.20
2022-08-18T00:45:37.624Z,5.23
2022-08-18T00:47:42.387Z,5.67
2022-08-18T00:49:49.573Z,5.63
2022-08-18T00:51:53.265Z,5.60
2022-08-18T00:54:02.068Z,5.57
2022-08-18T00:56:09.530Z,5.73
2022-08-18T00:58:21.905Z,5.37
2022-08-18T01:00:24.779Z,5.17
2022-08-18T01:02:32.847Z,5.77
2022-08-18T01:04:42.260Z,5.07
2022-08-18T01:06:52.409Z,5.20
2022-08-18T01:08:55.972Z,5.10
2022-08-18T01:11:01.711Z,5.57
2022-08-18T01:13:06.881Z,5.77
2022-08-18T01:17:48.498Z,5.27
2022-08-18T01:20:09.174Z,5.40
2022-08-18T01:22:19.286Z,4.70
2022-08-18T01:24:42.625Z,4.90
2022-08-18T01:26:50.038Z,4.43
2022-08-18T01:28:53.990Z,4.87
2022-08-18T01:30:59.025Z,5.10
2022-08-18T01:33:01.909Z,4.70
2022-08-18T01:35:08.577Z,4.50
2022-08-18T01:37:11.416Z,4.87
2022-08-18T01:39:14.800Z,4.37
2022-08-18T01:41:40.537Z,4.80
2022-08-18T01:43:43.513Z,5.50
2022-08-18T01:45:46.358Z,4.97
2022-08-18T01:47:50.599Z,4.67
2022-08-18T01:49:53.469Z,4.80
2022-08-18T01:51:56.561Z,5.47
2022-08-18T01:53:58.868Z,4.33
2022-08-18T01:56:05.525Z,5.50
2022-08-18T01:58:09.679Z,5.77
2022-08-18T02:00:15.512Z,6.37
2022-08-18T02:02:24.482Z,5.30
2022-08-18T02:04:36.012Z,5.60
2022-08-18T02:06:46.447Z,5.93
2022-08-18T02:08:53.796Z,6.20
2022-08-18T02:10:58.764Z,6.07
2022-08-18T02:13:01.794Z,6.27
2022-08-18T02:15:07.835Z,6.20
2022-08-18T02:17:13.067Z,6.20
2022-08-18T02:19:15.920Z,5.90
2022-08-18T02:21:21.822Z,6.10
2022-08-18T02:23:25.294Z,6.30
2022-08-18T02:25:28.209Z,5.80
2022-08-18T02:27:31.230Z,5.10
2022-08-18T02:29:36.809Z,5.97
2022-08-18T02:31:41.008Z,6.13
2022-08-18T02:33:51.961Z,5.50
2022-08-18T02:35:55.850Z,6.13
2022-08-18T02:38:00.531Z,5.23
2022-08-18T02:40:07.595Z,6.03
2022-08-18T02:42:14.044Z,5.93
2022-08-18T02:44:17.128Z,4.67
2022-08-18T02:46:21.298Z,6.07
2022-08-18T02:48:31.262Z,6.43
2022-08-18T02:50:34.179Z,5.87
2022-08-18T02:52:37.059Z,5.33
2022-08-18T02:54:42.388Z,5.73
2022-08-18T02:56:47.002Z,5.80
2022-08-18T02:58:50.817Z,6.80
2022-08-18T03:00:53.662Z,7.23
2022-08-18T03:02:56.875Z,5.20
2022-08-18T03:05:01.080Z,7.00
2022-08-18T03:07:06.927Z,6.30
2022-08-18T03:09:13.064Z,6.17
2022-08-18T03:11:16.411Z,7.10
2022-08-18T03:13:19.270Z,5.87
2022-08-18T03:15:22.198Z,6.47
2022-08-18T03:17:29.255Z,6.10
2022-08-18T03:19:34.488Z,5.50
2022-08-18T03:21:39.184Z,7.17
2022-08-18T03:23:44.351Z,6.80
2022-08-18T03:26:03.959Z,6.30
2022-08-18T03:28:07.057Z,7.40
2022-08-18T03:30:11.660Z,6.67
2022-08-18T03:32:14.923Z,5.47
2022-08-18T03:34:20.720Z,5.67
2022-08-18T03:36:25.654Z,6.20
2022-08-18T03:38:29.939Z,8.40
2022-08-18T03:40:32.805Z,7.43
2022-08-18T03:42:35.676Z,6.43
2022-08-18T03:44:38.683Z,7.40
2022-08-18T03:46:42.582Z,7.03
2022-08-18T03:48:47.232Z,6.53
2022-08-18T03:50:50.047Z,5.57
2022-08-18T03:52:53.288Z,6.70
2022-08-18T03:54:57.464Z,5.97
2022-08-18T03:57:00.478Z,6.70
2022-08-18T03:59:07.809Z,5.53
2022-08-18T04:01:11.386Z,5.83
2022-08-18T04:03:14.231Z,5.33
2022-08-18T04:05:17.062Z,6.10
2022-08-18T04:07:19.919Z,6.47
2022-08-18T04:09:24.870Z,5.60
2022-08-18T04:11:30.236Z,4.90
2022-08-18T04:13:39.332Z,5.10
2022-08-18T04:15:42.291Z,5.20
2022-08-18T04:18:03.104Z,5.60
2022-08-18T04:20:08.068Z,5.30
2022-08-18T04:22:17.300Z,5.50
2022-08-18T04:24:21.997Z,5.10
2022-08-18T04:26:24.815Z,5.67
2022-08-18T04:28:30.276Z,6.43
2022-08-18T04:30:33.435Z,5.80
2022-08-18T04:32:36.385Z,5.70
2022-08-18T04:34:39.578Z,6.80
2022-08-18T04:36:43.746Z,6.90
2022-08-18T04:38:46.971Z,6.47
2022-08-18T04:40:50.353Z,7.20
2022-08-18T04:42:54.092Z,7.13
2022-08-18T04:44:59.156Z,7.70
2022-08-18T04:47:02.439Z,8.43
2022-08-18T04:49:05.326Z,7.23
2022-08-18T04:51:10.242Z,7.80
2022-08-18T04:53:31.722Z,7.50
2022-08-18T04:55:34.647Z,7.50
2022-08-18T04:57:37.842Z,7.60
2022-08-18T04:59:45.612Z,7.97
2022-08-18T05:01:50.025Z,8.30
2022-08-18T05:03:58.284Z,8.10
2022-08-18T05:06:08.546Z,8.83
2022-08-18T05:08:11.420Z,8.30
2022-08-18T05:10:17.871Z,7.90
2022-08-18T05:12:26.039Z,7.77
2022-08-18T05:14:29.618Z,8.40
2022-08-18T05:16:36.624Z,7.73
2022-08-18T05:18:53.385Z,8.87
2022-08-18T05:20:58.613Z,7.80
2022-08-18T05:23:02.500Z,8.03
2022-08-18T05:25:06.194Z,7.57
2022-08-18T05:27:09.105Z,7.93
2022-08-18T05:29:18.396Z,7.23
2022-08-18T05:31:54.469Z,7.83
2022-08-18T05:34:03.012Z,7.50
2022-08-18T05:36:12.274Z,7.70
2022-08-18T05:38:35.449Z,7.43
2022-08-18T05:40:39.015Z,7.73
2022-08-18T05:42:43.085Z,7.73
2022-08-18T05:44:48.226Z,8.20
2022-08-18T05:46:53.685Z,8.30
2022-08-18T05:48:56.610Z,8.30
2022-08-18T05:51:11.421Z,8.27
2022-08-18T05:53:18.393Z,8.47
2022-08-18T05:55:58.912Z,8.43
2022-08-18T05:58:05.529Z,8.37
2022-08-18T06:00:11.664Z,8.30
2022-08-18T06:02:32.789Z,8.73
2022-08-18T06:04:48.777Z,7.93
2022-08-18T06:06:56.424Z,8.20
2022-08-18T06:09:06.429Z,8.33
2022-08-18T06:11:17.143Z,8.67
2022-08-18T06:13:27.471Z,8.40
2022-08-18T06:15:48.753Z,8.40
2022-08-18T06:18:31.890Z,8.27
2022-08-18T06:20:44.145Z,8.03
2022-08-18T06:22:57.520Z,7.53
2022-08-18T06:25:06.093Z,8.10
2022-08-18T06:27:18.927Z,7.67
2022-08-18T06:29:44.427Z,7.37
2022-08-18T06:31:57.909Z,7.80
2022-08-18T06:34:10.456Z,7.37
2022-08-18T06:36:22.851Z,8.00
2022-08-18T06:38:45.409Z,8.20
2022-08-18T06:40:49.229Z,7.87
2022-08-18T06:42:52.159Z,8.57
2022-08-18T06:45:02.398Z,8.60
2022-08-18T06:47:16.166Z,8.20
2022-08-18T06:49:29.631Z,7.90
2022-08-18T06:51:36.326Z,8.23
2022-08-18T06:53:57.807Z,8.73
2022-08-18T06:56:25.957Z,8.97
2022-08-18T06:58:31.502Z,8.80
2022-08-18T07:00:36.887Z,8.50
2022-08-18T07:02:52.040Z,8.73
2022-08-18T07:05:08.066Z,9.17
2022-08-18T07:07:40.201Z,9.13
2022-08-18T07:09:44.366Z,9.47
2022-08-18T07:12:06.674Z,9.40
2022-08-18T07:14:18.826Z,8.63
2022-08-18T07:16:46.937Z,9.20
2022-08-18T07:18:48.648Z,9.23
2022-08-18T07:20:54.775Z,8.80
2022-08-18T07:23:00.261Z,8.87
2022-08-18T07:25:06.076Z,8.77
2022-08-18T07:27:13.201Z,9.00
2022-08-18T07:29:16.979Z,8.83
2022-08-18T07:31:40.944Z,8.27
2022-08-18T07:33:51.436Z,8.93
2022-08-18T07:35:59.520Z,8.43
2022-08-18T07:38:38.628Z,8.67
2022-08-18T07:40:38.364Z,8.30
2022-08-18T07:43:01.606Z,8.47
2022-08-18T07:45:11.020Z,7.70
2022-08-18T07:47:19.567Z,8.80
2022-08-18T07:49:25.886Z,9.30
2022-08-18T07:51:43.829Z,8.40
2022-08-18T07:53:56.183Z,8.10
2022-08-18T07:56:05.560Z,8.30
2022-08-18T07:58:23.758Z,13.33
2022-08-18T08:00:57.448Z,9.53
2022-08-18T08:03:11.595Z,10.40
2022-08-18T08:05:21.562Z,9.00
2022-08-18T08:07:27.355Z,9.97
2022-08-18T08:09:40.128Z,8.63
2022-08-18T08:11:54.596Z,8.47
2022-08-18T08:14:10.627Z,8.27
2022-08-18T08:16:21.376Z,7.53
2022-08-18T08:18:37.956Z,8.27
2022-08-18T08:20:48.712Z,8.00
2022-08-18T08:23:06.052Z,8.03
2022-08-18T08:25:44.674Z,8.80
2022-08-18T08:27:58.510Z,8.23
2022-08-18T08:30:08.284Z,7.87
2022-08-18T08:32:16.266Z,8.30
2022-08-18T08:34:25.957Z,8.43
2022-08-18T08:36:34.137Z,8.10
2022-08-18T08:38:45.353Z,9.07
2022-08-18T08:40:55.326Z,9.00
2022-08-18T08:43:03.936Z,9.33
2022-08-18T08:45:15.085Z,9.60
2022-08-18T08:47:23.396Z,9.03
2022-08-18T08:49:38.380Z,8.93
2022-08-18T08:51:48.919Z,9.60
2022-08-18T08:53:56.907Z,8.83
2022-08-18T08:56:05.209Z,8.00
2022-08-18T08:58:20.511Z,8.33
2022-08-18T09:00:28.425Z,8.77
2022-08-18T09:02:49.446Z,7.93
2022-08-18T09:05:08.711Z,7.87
2022-08-18T09:07:26.542Z,7.40
2022-08-18T09:09:49.786Z,6.80
2022-08-18T09:12:13.340Z,8.23
2022-08-18T09:14:38.250Z,9.00
2022-08-18T09:16:54.616Z,8.20
2022-08-18T09:19:14.099Z,9.00
2022-08-18T09:21:31.105Z,9.30
2022-08-18T09:23:41.038Z,8.37
2022-08-18T09:25:52.127Z,9.27
2022-08-18T09:28:11.442Z,9.73
2022-08-18T09:30:41.130Z,9.70
2022-08-18T09:32:57.570Z,9.10
2022-08-18T09:35:13.011Z,9.60
2022-08-18T09:37:21.528Z,8.70
2022-08-18T09:42:16.106Z,8.77
2022-08-18T09:44:52.396Z,8.83
2022-08-18T09:47:02.554Z,8.20
2022-08-18T09:49:41.725Z,8.90
2022-08-18T09:51:52.346Z,9.17
2022-08-18T09:54:13.218Z,9.70
2022-08-18T09:56:19.633Z,9.30
2022-08-18T09:58:56.068Z,9.10
2022-08-18T10:01:24.165Z,7.77
2022-08-18T10:03:31.279Z,7.43
2022-08-18T10:05:36.644Z,7.40
2022-08-18T10:07:44.013Z,7.90
2022-08-18T10:10:03.693Z,7.40
2022-08-18T10:12:57.749Z,7.10
2022-08-18T10:15:33.878Z,7.20
2022-08-18T10:17:51.342Z,7.30
2022-08-18T10:20:05.753Z,7.37
2022-08-18T10:22:12.117Z,7.00
2022-08-18T10:27:09.782Z,7.90
2022-08-18T10:29:45.510Z,7.00
2022-08-18T10:32:26.459Z,7.80
2022-08-18T10:34:40.662Z,8.83
2022-08-18T10:36:59.697Z,6.80
2022-08-18T10:39:06.198Z,7.50
2022-08-18T10:41:20.155Z,7.10
2022-08-18T10:43:45.766Z,6.43
2022-08-18T10:46:24.314Z,7.20
2022-08-18T10:48:24.454Z,6.50
2022-08-18T10:50:31.452Z,7.23
2022-08-18T10:53:10.170Z,7.57
2022-08-18T10:58:30.380Z,6.63
2022-08-18T11:00:46.165Z,7.03
2022-08-18T11:03:42.763Z,6.60
2022-08-18T11:05:31.833Z,6.93
2022-08-18T11:07:39.691Z,7.30
2022-08-18T11:09:50.764Z,7.17
2022-08-18T11:12:03.471Z,6.73
2022-08-18T11:14:17.024Z,6.20
2022-08-18T11:16:33.138Z,6.73
2022-08-18T11:18:43.168Z,6.37
2022-08-18T11:20:47.648Z,6.70
2022-08-18T11:22:54.333Z,6.37
2022-08-18T11:24:58.333Z,6.27
2022-08-18T11:29:34.186Z,6.40
2022-08-18T11:31:37.582Z,6.53
2022-08-18T11:33:42.026Z,6.57
2022-08-18T11:35:48.682Z,6.70
2022-08-18T11:37:58.208Z,6.90
2022-08-18T11:40:07.324Z,6.90
2022-08-18T11:42:21.591Z,7.67
2022-08-18T11:44:31.725Z,7.17
2022-08-18T11:46:40.778Z,7.37
2022-08-18T11:48:52.422Z,8.27
2022-08-18T11:51:04.555Z,8.73
2022-08-18T11:53:18.984Z,8.50
2022-08-18T11:55:33.851Z,8.23
2022-08-18T11:57:52.247Z,8.60
2022-08-18T12:00:00.482Z,7.93
2022-08-18T12:02:05.496Z,8.40
2022-08-18T12:04:15.609Z,7.60
2022-08-18T12:06:26.652Z,8.47
2022-08-18T12:13:30.187Z,7.70
2022-08-18T12:15:43.671Z,8.93
2022-08-18T12:17:49.838Z,8.50
2022-08-18T12:19:57.620Z,7.80
2022-08-18T12:22:13.538Z,7.50
2022-08-18T12:24:26.499Z,7.40
2022-08-18T12:26:38.965Z,7.73
2022-08-18T12:28:52.108Z,7.90
2022-08-18T12:33:18.111Z,9.00
2022-08-18T12:35:29.012Z,8.50
2022-08-18T12:37:58.136Z,7.87
2022-08-18T12:39:56.918Z,8.17
2022-08-18T12:42:01.258Z,8.10
2022-08-18T12:44:09.879Z,7.43
2022-08-18T12:46:16.452Z,8.07
2022-08-18T12:48:22.205Z,8.37
2022-08-18T12:50:31.346Z,7.80
2022-08-18T12:52:37.969Z,7.43
2022-08-18T12:54:55.737Z,8.10
2022-08-18T12:56:59.532Z,8.33
2022-08-18T12:59:08.475Z,7.80
2022-08-18T13:01:11.846Z,8.47
2022-08-18T13:03:15.247Z,7.83
2022-08-18T13:05:19.818Z,8.00
2022-08-18T13:07:31.382Z,8.60
2022-08-18T13:09:52.710Z,7.77
2022-08-18T13:11:57.150Z,8.40
2022-08-18T13:14:03.336Z,9.10
2022-08-18T13:16:16.348Z,8.30
2022-08-18T13:18:33.451Z,8.40
2022-08-18T13:20:39.405Z,8.07
2022-08-18T13:22:48.363Z,25.23
2022-08-18T13:24:53.301Z,8.03
2022-08-18T13:27:02.120Z,8.57
2022-08-18T13:29:05.656Z,8.50
2022-08-18T13:31:16.155Z,9.43
2022-08-18T13:33:35.283Z,8.03
2022-08-18T13:35:44.669Z,6.80
2022-08-18T13:37:48.432Z,9.77
2022-08-18T13:39:52.758Z,11.40
2022-08-18T13:42:21.503Z,7.20
2022-08-18T13:44:29.031Z,7.40
2022-08-18T13:46:33.649Z,7.00
2022-08-18T13:48:37.655Z,7.00
2022-08-18T13:50:43.406Z,7.03
2022-08-18T13:52:50.420Z,6.53
2022-08-18T13:54:55.060Z,6.67
2022-08-18T13:57:00.231Z,6.20
2022-08-18T13:59:04.919Z,6.87
2022-08-18T14:03:46.680Z,6.23
2022-08-18T14:05:52.350Z,5.80
2022-08-18T14:07:56.046Z,6.60
2022-08-18T14:10:04.365Z,6.47
2022-08-18T14:12:15.901Z,5.60
2022-08-18T14:14:27.804Z,5.67
2022-08-18T14:16:31.305Z,5.93
2022-08-18T14:18:34.269Z,5.80
2022-08-18T14:20:56.238Z,6.73
2022-08-18T14:23:21.979Z,6.00
2022-08-18T14:25:51.289Z,5.90
2022-08-18T14:27:56.880Z,5.70
2022-08-18T14:30:01.450Z,10.73
2022-08-18T14:32:04.975Z,27.47
2022-08-18T14:34:09.803Z,7.40
2022-08-18T14:36:16.392Z,6.20
2022-08-18T14:38:21.255Z,6.50
2022-08-18T14:40:24.553Z,6.00
2022-08-18T14:42:41.290Z,6.13
2022-08-18T14:44:51.801Z,6.13
2022-08-18T14:47:17.495Z,6.50
2022-08-18T14:49:29.282Z,6.30
2022-08-18T14:51:34.237Z,5.97
2022-08-18T14:53:38.216Z,6.63
2022-08-18T14:55:41.407Z,6.53
2022-08-18T14:57:44.709Z,6.53
2022-08-18T14:59:48.539Z,5.90
2022-08-18T15:01:52.370Z,5.90
2022-08-18T15:03:56.903Z,6.13
2022-08-18T15:06:04.732Z,5.93
2022-08-18T15:08:11.016Z,8.17
2022-08-18T15:10:16.645Z,8.07
2022-08-18T15:12:24.636Z,7.17
2022-08-18T15:14:33.649Z,6.57
2022-08-18T15:16:39.833Z,6.53
2022-08-18T15:18:43.026Z,6.50
2022-08-18T15:21:04.111Z,6.37
2022-08-18T15:23:32.454Z,5.97
2022-08-18T15:25:44.532Z,5.87
2022-08-18T15:27:47.786Z,6.13
2022-08-18T15:29:55.887Z,6.37
2022-08-18T15:32:05.168Z,5.57
2022-08-18T15:34:12.709Z,5.30
2022-08-18T15:36:23.979Z,6.03
2022-08-18T15:38:33.502Z,5.77
2022-08-18T15:40:41.622Z,6.10
2022-08-18T15:42:49.819Z,5.93
2022-08-18T15:44:53.884Z,5.90
2022-08-18T15:46:57.127Z,5.40
2022-08-18T15:49:00.125Z,5.97
2022-08-18T15:51:07.961Z,5.77
2022-08-18T15:53:17.128Z,6.13
2022-08-18T15:55:23.615Z,6.30
2022-08-18T15:57:38.683Z,6.80
2022-08-18T15:59:43.070Z,6.53
2022-08-18T16:01:49.970Z,6.90
2022-08-18T16:03:54.514Z,7.40
2022-08-18T16:05:57.504Z,7.33
2022-08-18T16:08:01.409Z,7.70
2022-08-18T16:10:05.585Z,7.50
2022-08-18T16:12:11.157Z,22.33
2022-08-18T16:14:14.726Z,7.27
2022-08-18T16:16:29.253Z,7.40
2022-08-18T16:18:40.005Z,6.90
2022-08-18T16:20:43.549Z,6.90
2022-08-18T16:22:47.039Z,7.00
2022-08-18T16:24:55.175Z,7.10
2022-08-18T16:26:58.592Z,6.70
2022-08-18T16:29:02.937Z,7.20
2022-08-18T16:31:06.246Z,7.13
2022-08-18T16:33:09.543Z,7.53
2022-08-18T16:35:12.777Z,7.67
2022-08-18T16:39:24.150Z,7.30
2022-08-18T16:41:27.996Z,6.87
2022-08-18T16:43:30.783Z,7.20
2022-08-18T16:45:37.708Z,7.10
2022-08-18T16:47:41.378Z,6.57
2022-08-18T16:49:45.896Z,7.03
2022-08-18T16:51:48.883Z,7.27
2022-08-18T16:53:53.521Z,6.87
2022-08-18T16:55:56.614Z,7.40
2022-08-18T16:58:16.831Z,6.83
2022-08-18T17:00:37.824Z,6.90
2022-08-18T17:13:48.807Z,7.93
2022-08-18T17:15:52.283Z,6.77
2022-08-18T17:17:56.562Z,8.00
2022-08-18T17:19:59.753Z,7.60
2022-08-18T17:22:03.560Z,7.47
2022-08-18T17:24:11.442Z,8.00
2022-08-18T17:26:23.141Z,7.57
2022-08-18T17:34:52.940Z,8.03
2022-08-18T17:36:58.115Z,7.67
2022-08-18T17:39:03.599Z,7.80
2022-08-18T17:41:07.348Z,8.53
2022-08-18T17:43:14.992Z,8.30
2022-08-18T17:45:21.846Z,7.50
2022-08-18T17:47:30.179Z,7.63
2022-08-18T17:50:26.315Z,8.57
2022-08-18T17:52:24.519Z,8.63
2022-08-18T17:54:36.914Z,8.97
2022-08-18T17:56:45.437Z,9.93
2022-08-18T17:58:56.405Z,9.10
2022-08-18T18:01:00.495Z,9.97
2022-08-18T18:03:03.965Z,10.30
2022-08-18T18:05:11.262Z,9.97
2022-08-18T18:07:24.541Z,11.23
2022-08-18T18:09:31.946Z,11.33
2022-08-18T18:11:38.026Z,10.77
2022-08-18T18:13:41.198Z,14.43
2022-08-18T18:15:48.785Z,18.70
2022-08-18T18:17:51.825Z,11.13
2022-08-18T18:19:57.968Z,12.07
2022-08-18T18:22:08.384Z,13.57
2022-08-18T18:24:17.061Z,14.07
2022-08-18T18:26:31.077Z,13.80
2022-08-18T18:28:36.082Z,14.03
2022-08-18T18:30:39.170Z,14.23
2022-08-18T18:32:59.600Z,14.57
2022-08-18T18:35:10.927Z,14.87
2022-08-18T18:37:26.384Z,15.00
2022-08-18T18:39:34.172Z,15.40
2022-08-18T18:41:40.041Z,16.03
2022-08-18T18:43:46.726Z,16.93
2022-08-18T18:46:23.620Z,34.87
2022-08-18T18:48:51.295Z,16.20
2022-08-18T18:51:10.977Z,16.47
2022-08-18T18:53:25.862Z,18.03
2022-08-18T18:55:37.423Z,18.93
2022-08-18T18:57:48.563Z,16.40
2022-08-18T19:00:05.547Z,15.63
2022-08-18T19:02:33.567Z,15.50
2022-08-18T19:04:41.380Z,15.27
2022-08-18T19:06:52.305Z,14.70
2022-08-18T19:09:04.283Z,14.13
2022-08-18T19:11:21.995Z,13.40
2022-08-18T19:13:33.327Z,14.20
2022-08-18T19:15:40.855Z,13.80
2022-08-18T19:17:47.960Z,13.50
2022-08-18T19:19:54.529Z,13.97
2022-08-18T19:22:06.478Z,13.37
2022-08-18T19:24:17.989Z,15.27
2022-08-18T19:26:38.499Z,14.60
2022-08-18T19:29:12.271Z,13.83
2022-08-18T19:31:14.808Z,14.43
2022-08-18T19:33:25.824Z,13.43
2022-08-18T19:35:37.818Z,13.33
2022-08-18T19:38:04.812Z,14.23
2022-08-18T19:40:15.437Z,14.17
2022-08-18T19:42:28.551Z,13.17
2022-08-18T19:45:00.255Z,13.80
2022-08-18T19:47:14.347Z,14.13
2022-08-18T19:49:31.457Z,13.27
2022-08-18T19:51:39.502Z,12.90
2022-08-18T19:54:18.364Z,11.80
2022-08-18T19:56:33.663Z,13.43
2022-08-18T19:59:18.640Z,11.40
2022-08-18T20:01:31.467Z,10.33
2022-08-18T20:03:51.551Z,13.63
2022-08-18T20:06:34.845Z,12.67
2022-08-18T20:09:04.480Z,12.10
2022-08-18T20:11:41.275Z,13.47
2022-08-18T20:13:47.090Z,13.83
2022-08-18T20:16:13.574Z,12.27
2022-08-18T20:18:23.021Z,13.50
2022-08-18T20:20:27.543Z,12.20
2022-08-18T20:22:35.404Z,11.30
2022-08-18T20:24:50.318Z,10.30
2022-08-18T20:26:53.356Z,11.30
2022-08-18T20:28:57.746Z,12.27
2022-08-18T20:31:14.835Z,11.20
2022-08-18T20:33:21.887Z,11.70
2022-08-18T20:35:32.140Z,11.07
2022-08-18T20:37:35.117Z,12.77
2022-08-18T20:39:44.540Z,11.83
2022-08-18T20:41:50.658Z,11.50
2022-08-18T20:44:06.541Z,13.13
2022-08-18T20:46:35.149Z,10.90
2022-08-18T20:48:52.370Z,11.83
2022-08-18T20:51:03.047Z,12.17
2022-08-18T20:53:15.347Z,11.67
2022-08-18T20:55:30.809Z,10.80
2022-08-18T20:57:37.937Z,12.93
2022-08-18T20:59:45.285Z,12.60
2022-08-18T21:01:58.337Z,11.10
2022-08-18T21:04:01.262Z,14.17
2022-08-18T21:06:05.599Z,12.10
2022-08-18T21:08:27.813Z,14.60
2022-08-18T21:10:33.198Z,15.60
2022-08-18T21:12:36.530Z,12.00
2022-08-18T21:14:39.503Z,11.70
2022-08-18T21:16:45.122Z,11.63
2022-08-18T21:18:53.226Z,12.97
2022-08-18T21:21:01.142Z,13.57
2022-08-18T21:23:09.356Z,13.60
2022-08-18T21:25:15.047Z,14.13
2022-08-18T21:27:25.380Z,12.20
2022-08-18T21:29:42.252Z,11.33
2022-08-18T21:31:51.928Z,13.67
2022-08-18T21:33:59.048Z,11.97
2022-08-18T21:36:11.624Z,14.43
2022-08-18T21:38:14.642Z,12.43
2022-08-18T21:40:17.604Z,10.87
2022-08-18T21:42:24.509Z,13.13
2022-08-18T21:44:37.539Z,12.50
2022-08-18T21:46:40.621Z,14.20
2022-08-18T21:48:50.110Z,14.50
2022-08-18T21:50:58.244Z,14.07
2022-08-18T21:53:06.625Z,12.23
2022-08-18T21:55:25.801Z,13.70
2022-08-18T21:57:30.375Z,12.20
2022-08-18T21:59:33.220Z,15.90
2022-08-18T22:01:37.673Z,12.47
2022-08-18T22:03:52.524Z,14.23
2022-08-18T22:06:18.193Z,12.60
2022-08-18T22:08:23.250Z,12.70
2022-08-18T22:10:46.250Z,12.73
2022-08-18T22:13:11.797Z,13.20
2022-08-18T22:15:18.539Z,12.03
2022-08-18T22:17:27.705Z,13.87
2022-08-18T22:19:30.878Z,13.33
2022-08-18T22:21:39.195Z,11.67
2022-08-18T22:24:05.087Z,11.53
2022-08-18T22:26:12.434Z,12.53
2022-08-18T22:28:20.823Z,12.60
2022-08-18T22:30:23.700Z,14.33
2022-08-18T22:32:26.582Z,14.10
2022-08-18T22:34:32.029Z,11.83
2022-08-18T22:36:39.370Z,11.73
2022-08-18T22:38:43.197Z,12.87
2022-08-18T22:40:46.076Z,13.27
2022-08-18T22:42:49.068Z,12.77
2022-08-18T22:44:52.343Z,11.37
2022-08-18T22:46:55.293Z,14.37
2022-08-18T22:48:58.434Z,12.53
2022-08-18T22:51:01.573Z,13.97
2022-08-18T22:53:05.864Z,13.40
2022-08-18T22:55:12.436Z,14.37
2022-08-18T22:57:15.693Z,14.17
2022-08-18T22:59:20.485Z,13.17
2022-08-18T23:01:24.264Z,12.27
2022-08-18T23:03:27.924Z,13.60
2022-08-18T23:05:32.649Z,12.30
2022-08-18T23:07:35.555Z,12.30
2022-08-18T23:09:40.246Z,13.47
2022-08-18T23:11:43.268Z,14.03
2022-08-18T23:13:47.062Z,13.23
2022-08-18T23:15:49.957Z,12.83
2022-08-18T23:17:53.417Z,12.13
2022-08-18T23:19:56.259Z,12.67
2022-08-18T23:21:59.867Z,13.40
2022-08-18T23:24:02.803Z,13.63
2022-08-18T23:26:11.529Z,12.10
2022-08-18T23:28:15.763Z,13.37
2022-08-18T23:30:18.713Z,11.97
2022-08-18T23:32:21.569Z,12.97
2022-08-18T23:34:34.841Z,12.27
2022-08-18T23:36:45.128Z,12.73
2022-08-18T23:38:49.209Z,12.20
2022-08-18T23:40:52.861Z,13.03
2022-08-18T23:42:59.980Z,12.03
2022-08-18T23:45:04.747Z,14.53
2022-08-18T23:47:07.928Z,12.80
2022-08-18T23:49:14.883Z,14.93
2022-08-18T23:51:29.892Z,12.97
2022-08-18T23:53:32.842Z,13.20
2022-08-18T23:55:35.774Z,12.23
2022-08-18T23:57:39.116Z,13.70
2022-08-18T23:59:43.817Z,12.73
